Time;durP1;ratioP1;P1;durP2;ratioP2;P2;SDS_P1;SDS_P2;PMS_P1;PMS_P2;Temp;Humidity;BMP_temperature;BMP_pressure;BME280_temperature;BME280_humidity;BME280_pressure;Samples;Min_cycle;Max_cycle;Signal;HPM_P1;HPM_P2
2023/08/01 00:01:33;;;;;;;7.90;6.50;;;;;;;17.80;100.00;98592.98;109452;1253;60556;-70
2023/08/01 00:04:01;;;;;;;8.30;5.70;;;;;;;17.72;100.00;98601.80;109406;1253;74669;-69
2023/08/01 00:06:29;;;;;;;7.50;6.20;;;;;;;17.67;100.00;98601.80;109410;1256;68496;-70
2023/08/01 00:08:56;;;;;;;9.00;6.40;;;;;;;17.64;100.00;98602.70;109531;1253;72631;-69
2023/08/01 00:11:23;;;;;;;8.90;6.80;;;;;;;17.59;100.00;98598.83;109528;1253;60388;-69
2023/08/01 00:13:51;;;;;;;8.90;5.90;;;;;;;17.50;100.00;98599.63;109403;1253;58887;-68
2023/08/01 00:16:18;;;;;;;8.10;6.20;;;;;;;17.41;100.00;98595.37;109538;1252;73520;-69
2023/08/01 00:18:46;;;;;;;8.40;6.20;;;;;;;17.35;100.00;98594.06;109464;1253;67727;-69
2023/08/01 00:21:13;;;;;;;6.70;6.00;;;;;;;17.36;100.00;98588.77;109462;1253;72674;-70
2023/08/01 00:23:40;;;;;;;10.40;6.50;;;;;;;17.38;100.00;98588.52;109463;1253;61778;-69
2023/08/01 00:26:08;;;;;;;11.20;6.80;;;;;;;17.40;100.00;98588.52;109383;1255;60050;-69
2023/08/01 00:28:35;;;;;;;7.80;5.70;;;;;;;17.41;100.00;98586.55;109548;1252;72860;-69
2023/08/01 00:31:08;;;;;;;8.00;6.30;;;;;;;17.34;100.00;98584.91;109391;1257;66308;-69
2023/08/01 00:33:36;;;;;;;7.20;6.20;;;;;;;17.22;100.00;98578.09;109361;1254;72693;-69
2023/08/01 00:36:08;;;;;;;11.00;7.90;;;;;;;17.13;100.00;98579.25;109360;1254;60569;-68
2023/08/01 00:38:36;;;;;;;7.80;7.00;;;;;;;17.03;100.00;98581.79;109237;1253;60130;-69
2023/08/01 00:41:04;;;;;;;7.20;6.60;;;;;;;16.98;100.00;98581.58;109260;1253;74640;-69
2023/08/01 00:43:31;;;;;;;11.70;7.10;;;;;;;16.94;100.00;98579.63;109514;1252;67586;-69
2023/08/01 00:46:03;;;;;;;8.60;6.30;;;;;;;16.94;100.00;98586.29;109228;1253;72737;-69
2023/08/01 00:48:30;;;;;;;6.70;6.10;;;;;;;16.96;100.00;98591.48;109379;1254;60745;-68
2023/08/01 00:50:59;;;;;;;9.90;7.30;;;;;;;17.00;100.00;98596.42;109377;1253;60106;-69
2023/08/01 00:53:26;;;;;;;16.40;6.50;;;;;;;17.03;100.00;98592.24;109258;1254;73884;-69
2023/08/01 00:55:54;;;;;;;7.70;7.00;;;;;;;17.03;100.00;98583.92;109479;1253;66630;-69
2023/08/01 00:58:22;;;;;;;7.80;6.10;;;;;;;17.03;100.00;98582.90;109481;1254;72469;-69
2023/08/01 01:00:49;;;;;;;8.30;6.90;;;;;;;17.05;100.00;98586.33;109478;1253;61679;-69
2023/08/01 01:03:17;;;;;;;8.70;7.10;;;;;;;17.06;100.00;98580.98;109434;1253;59038;-69
2023/08/01 01:05:56;;;;;;;8.30;6.70;;;;;;;17.05;100.00;98578.11;109296;1253;74577;-68
2023/08/01 01:08:23;;;;;;;9.70;6.40;;;;;;;17.05;100.00;98573.80;109410;1253;67854;-69
2023/08/01 01:10:50;;;;;;;7.10;6.50;;;;;;;17.07;100.00;98574.23;109465;1253;71100;-68
2023/08/01 01:13:18;;;;;;;7.30;6.60;;;;;;;17.09;100.00;98570.46;109393;1253;61737;-69
2023/08/01 01:15:45;;;;;;;9.00;6.60;;;;;;;17.12;100.00;98569.55;109525;1252;60245;-68
2023/08/01 01:18:13;;;;;;;7.20;6.50;;;;;;;17.12;100.00;98572.04;109420;1253;74621;-70
2023/08/01 01:20:40;;;;;;;8.30;6.80;;;;;;;17.11;100.00;98573.16;109471;1253;67901;-68
2023/08/01 01:23:08;;;;;;;6.90;6.20;;;;;;;17.11;100.00;98576.42;109479;1256;72704;-69
2023/08/01 01:25:35;;;;;;;7.60;6.40;;;;;;;17.07;100.00;98570.59;109257;1256;61652;-69
2023/08/01 01:28:04;;;;;;;11.10;6.60;;;;;;;17.01;100.00;98568.50;109328;1254;58846;-69
2023/08/01 01:30:33;;;;;;;10.90;6.40;;;;;;;16.93;100.00;98570.25;109445;1253;73532;-69
2023/08/01 01:33:00;;;;;;;9.60;6.20;;;;;;;16.83;100.00;98570.39;109454;1253;66234;-69
2023/08/01 01:35:28;;;;;;;7.40;6.00;;;;;;;16.77;100.00;98569.91;109427;1253;70624;-69
2023/08/01 01:37:58;;;;;;;8.60;6.50;;;;;;;16.76;100.00;98566.92;109404;1253;60458;-68
2023/08/01 01:40:25;;;;;;;6.20;5.70;;;;;;;16.79;100.00;98567.69;109480;1253;61035;-68
2023/08/01 01:42:53;;;;;;;6.70;6.00;;;;;;;16.84;100.00;98574.34;109482;1253;73473;-69
2023/08/01 01:45:21;;;;;;;6.20;5.60;;;;;;;16.88;100.00;98574.27;109484;1253;66461;-69
2023/08/01 01:47:48;;;;;;;6.10;5.50;;;;;;;16.88;100.00;98573.29;109500;1253;71173;-70
2023/08/01 01:50:16;;;;;;;8.30;6.00;;;;;;;16.85;100.00;98574.68;109372;1253;61665;-70
2023/08/01 01:52:44;;;;;;;6.50;5.90;;;;;;;16.84;100.00;98570.61;109491;1252;58948;-68
2023/08/01 01:55:11;;;;;;;8.20;6.00;;;;;;;16.81;100.00;98563.72;109537;1252;74636;-68
2023/08/01 01:57:40;;;;;;;6.80;6.20;;;;;;;16.79;100.00;98565.38;109300;1253;66425;-69
2023/08/01 02:00:11;;;;;;;7.30;5.90;;;;;;;16.76;100.00;98566.45;109247;1253;72752;-68
2023/08/01 02:02:39;;;;;;;6.60;5.60;;;;;;;16.68;100.00;98562.81;109394;1254;60400;-69
2023/08/01 02:05:06;;;;;;;6.60;6.10;;;;;;;16.57;100.00;98560.23;109429;1253;60071;-69
2023/08/01 02:07:34;;;;;;;7.00;5.40;;;;;;;16.53;100.00;98560.77;109360;1252;73364;-69
2023/08/01 02:10:01;;;;;;;7.40;6.00;;;;;;;16.56;100.00;98560.54;109348;1253;67799;-69
2023/08/01 02:12:31;;;;;;;6.90;6.30;;;;;;;16.60;100.00;98563.27;109263;1253;73148;-69
2023/08/01 02:14:59;;;;;;;6.90;6.20;;;;;;;16.65;100.00;98562.91;109221;1253;61657;-69
2023/08/01 02:17:26;;;;;;;6.20;5.60;;;;;;;16.70;100.00;98566.13;109517;1253;60092;-69
2023/08/01 02:19:54;;;;;;;6.80;6.10;;;;;;;16.74;100.00;98568.18;109457;1253;74730;-69
2023/08/01 02:22:22;;;;;;;6.90;5.70;;;;;;;16.77;100.00;98562.02;109491;1253;66635;-69
2023/08/01 02:24:49;;;;;;;7.30;6.70;;;;;;;16.79;100.00;98561.79;109224;1253;71169;-69
2023/08/01 02:27:16;;;;;;;6.10;5.50;;;;;;;16.81;100.00;98563.83;109370;1253;60857;-69
2023/08/01 02:29:44;;;;;;;11.00;6.30;;;;;;;16.82;100.00;98566.48;109345;1253;58897;-70
2023/08/01 02:32:11;;;;;;;6.90;6.30;;;;;;;16.83;100.00;98570.23;109481;1252;74765;-69
2023/08/01 02:34:39;;;;;;;6.00;5.40;;;;;;;16.83;100.00;98570.23;109382;1253;67783;-69
2023/08/01 02:37:06;;;;;;;7.20;6.30;;;;;;;16.82;100.00;98570.98;109445;1253;71135;-70
2023/08/01 02:39:35;;;;;;;5.90;5.40;;;;;;;16.82;100.00;98567.60;109418;1254;61668;-69
2023/08/01 02:42:02;;;;;;;6.90;5.60;;;;;;;16.83;100.00;98562.41;109424;1253;60001;-69
2023/08/01 02:44:30;;;;;;;6.30;5.50;;;;;;;16.88;100.00;98563.95;109234;1253;74710;-69
2023/08/01 02:46:57;;;;;;;6.20;5.60;;;;;;;16.91;100.00;98564.52;109423;1252;67545;-69
2023/08/01 02:49:24;;;;;;;6.70;5.40;;;;;;;16.91;100.00;98565.95;109446;1253;73258;-69
2023/08/01 02:51:52;;;;;;;7.30;5.40;;;;;;;16.87;100.00;98569.13;109351;1253;61646;-69
2023/08/01 02:54:19;;;;;;;6.50;5.60;;;;;;;16.79;100.00;98569.67;109376;1253;58922;-69
2023/08/01 02:56:47;;;;;;;6.50;5.70;;;;;;;16.73;100.00;98566.46;109393;1253;74587;-69
2023/08/01 02:59:14;;;;;;;7.40;5.50;;;;;;;16.71;100.00;98563.54;109338;1256;67606;-68
2023/08/01 03:01:41;;;;;;;6.50;5.90;;;;;;;16.72;100.00;98565.44;109468;1253;72571;-69
2023/08/01 03:04:11;;;;;;;7.20;5.80;;;;;;;16.78;100.00;98566.13;109373;1253;60471;-69
2023/08/01 03:06:39;;;;;;;7.50;6.30;;;;;;;16.86;100.00;98564.92;109551;1253;58895;-69
2023/08/01 03:09:07;;;;;;;7.00;6.40;;;;;;;16.94;100.00;98564.95;109511;1253;73367;-69
2023/08/01 03:11:35;;;;;;;7.00;5.80;;;;;;;17.03;100.00;98565.32;109446;1253;67895;-69
2023/08/01 03:14:04;;;;;;;6.50;5.80;;;;;;;17.17;100.00;98566.40;109449;1253;72763;-69
2023/08/01 03:16:31;;;;;;;5.70;5.20;;;;;;;17.28;100.00;98573.31;109362;1258;61746;-69
2023/08/01 03:19:04;;;;;;;5.90;5.40;;;;;;;17.40;100.00;98575.08;109390;1254;59018;-69
2023/08/01 03:21:35;;;;;;;5.90;5.40;;;;;;;17.53;100.00;98575.50;109506;1253;75145;-69
2023/08/01 03:24:03;;;;;;;6.80;6.10;;;;;;;17.65;100.00;98569.79;109431;1252;67791;-68
2023/08/01 03:26:30;;;;;;;9.70;5.40;;;;;;;17.78;100.00;98570.77;109395;1253;72718;-69
2023/08/01 03:28:58;;;;;;;6.10;5.50;;;;;;;17.92;100.00;98568.80;109267;1253;60404;-69
2023/08/01 03:31:25;;;;;;;6.70;5.60;;;;;;;18.09;100.00;98563.52;109369;1258;59147;-69
2023/08/01 03:33:53;;;;;;;6.10;5.00;;;;;;;18.24;100.00;98561.12;109462;1256;74689;-69
2023/08/01 03:36:20;;;;;;;8.50;5.60;;;;;;;18.37;100.00;98557.50;109418;1254;66640;-69
2023/08/01 03:38:48;;;;;;;8.40;5.40;;;;;;;18.56;100.00;98559.08;109359;1254;71436;-69
2023/08/01 03:41:16;;;;;;;6.70;6.10;;;;;;;18.77;100.00;98556.95;109406;1253;61685;-69
2023/08/01 03:43:43;;;;;;;6.40;5.40;;;;;;;18.98;100.00;98552.65;109356;1254;59006;-69
2023/08/01 03:46:11;;;;;;;5.80;5.20;;;;;;;19.18;100.00;98550.59;109537;1254;74650;-69
2023/08/01 03:48:38;;;;;;;7.40;5.90;;;;;;;19.35;100.00;98547.17;109375;1254;68134;-70
2023/08/01 03:51:06;;;;;;;5.80;5.30;;;;;;;19.54;100.00;98546.11;109496;1254;72754;-67
2023/08/01 03:53:34;;;;;;;5.50;5.00;;;;;;;19.76;100.00;98542.34;109403;1253;62152;-69
2023/08/01 03:56:01;;;;;;;6.00;5.40;;;;;;;20.00;100.00;98538.30;109442;1253;58913;-70
2023/08/01 03:58:29;;;;;;;6.70;4.80;;;;;;;20.28;100.00;98533.09;109427;1253;74656;-68
2023/08/01 04:00:56;;;;;;;9.40;5.20;;;;;;;20.56;100.00;98525.64;109426;1253;67696;-68
2023/08/01 04:03:25;;;;;;;7.70;5.20;;;;;;;20.82;100.00;98518.19;109496;1253;71364;-69
2023/08/01 04:05:52;;;;;;;8.20;4.80;;;;;;;21.03;100.00;98513.21;109382;1254;58977;-69
2023/08/01 04:08:20;;;;;;;5.90;5.30;;;;;;;21.18;100.00;98513.27;109434;1253;59011;-68
2023/08/01 04:10:49;;;;;;;5.70;5.20;;;;;;;21.32;100.00;98511.56;109486;1253;74605;-69
2023/08/01 04:13:17;;;;;;;5.60;5.20;;;;;;;21.51;100.00;98509.61;109319;1253;66361;-70
2023/08/01 04:15:44;;;;;;;5.80;5.30;;;;;;;21.74;100.00;98506.06;109351;1252;72790;-69
2023/08/01 04:18:12;;;;;;;6.40;5.20;;;;;;;22.04;100.00;98501.64;109396;1253;60375;-70
2023/08/01 04:20:39;;;;;;;5.80;5.20;;;;;;;22.40;100.00;98498.44;109319;1254;60054;-70
2023/08/01 04:23:06;;;;;;;8.50;5.50;;;;;;;22.74;100.00;98496.14;109438;1254;74827;-69
2023/08/01 04:25:34;;;;;;;8.60;4.90;;;;;;;23.04;100.00;98494.11;109383;1254;65930;-69
2023/08/01 04:28:01;;;;;;;5.00;4.60;;;;;;;23.30;100.00;98494.17;109359;1253;72633;-70
2023/08/01 04:30:29;;;;;;;7.40;4.40;;;;;;;23.58;100.00;98495.34;109426;1254;60576;-69
2023/08/01 04:32:56;;;;;;;4.00;3.70;;;;;;;23.85;100.00;98489.56;109475;1254;60004;-71
2023/08/01 04:35:24;;;;;;;4.70;4.10;;;;;;;24.12;100.00;98490.25;109404;1254;74990;-69
2023/08/01 04:37:51;;;;;;;4.10;3.70;;;;;;;24.41;100.00;98487.83;109494;1254;66791;-68
2023/08/01 04:40:18;;;;;;;5.00;3.90;;;;;;;24.69;100.00;98490.61;109337;1255;72670;-69
2023/08/01 04:42:46;;;;;;;4.40;4.00;;;;;;;24.97;100.00;98489.50;109456;1254;58955;-70
2023/08/01 04:45:14;;;;;;;4.80;4.00;;;;;;;25.21;100.00;98488.65;109437;1252;59464;-69
2023/08/01 04:47:41;;;;;;;4.30;3.80;;;;;;;25.41;100.00;98489.26;109370;1253;73351;-69
2023/08/01 04:50:09;;;;;;;5.60;4.10;;;;;;;25.60;100.00;98490.62;109461;1254;66552;-69
2023/08/01 04:52:36;;;;;;;4.20;3.80;;;;;;;25.73;100.00;98482.98;109392;1254;72695;-68
2023/08/01 04:55:05;;;;;;;4.30;3.80;;;;;;;25.88;100.00;98479.60;109354;1254;60078;-70
2023/08/01 04:57:32;;;;;;;3.80;3.50;;;;;;;26.11;100.00;98479.98;109480;1254;58856;-70
2023/08/01 05:00:00;;;;;;;4.50;3.20;;;;;;;26.39;100.00;98477.65;109401;1254;74740;-72
2023/08/01 05:02:27;;;;;;;5.30;3.90;;;;;;;26.62;100.00;98474.74;109447;1253;66319;-71
2023/08/01 05:04:54;;;;;;;4.80;4.10;;;;;;;26.87;100.00;98471.98;109405;1253;71047;-69
2023/08/01 05:07:22;;;;;;;4.00;3.70;;;;;;;27.15;100.00;98472.63;109416;1254;60093;-69
2023/08/01 05:09:49;;;;;;;3.80;3.40;;;;;;;27.37;100.00;98471.27;109356;1254;58901;-68
2023/08/01 05:12:17;;;;;;;6.50;3.70;;;;;;;27.60;100.00;98469.84;109454;1253;73571;-68
2023/08/01 05:14:44;;;;;;;4.50;3.70;;;;;;;27.82;100.00;98462.98;109412;1254;67870;-69
2023/08/01 05:17:11;;;;;;;4.30;3.90;;;;;;;27.99;100.00;98464.10;109384;1253;72646;-68
2023/08/01 05:19:39;;;;;;;5.20;4.40;;;;;;;28.11;100.00;98463.06;109333;1252;60157;-69
2023/08/01 05:22:06;;;;;;;4.20;3.90;;;;;;;28.17;100.00;98463.08;109480;1254;58896;-69
2023/08/01 05:24:34;;;;;;;6.00;5.50;;;;;;;28.30;100.00;98463.29;109390;1253;74603;-69
2023/08/01 05:27:01;;;;;;;5.30;4.80;;;;;;;28.38;100.00;98465.38;109478;1254;66489;-69
2023/08/01 05:29:28;;;;;;;4.40;4.10;;;;;;;28.37;100.00;98460.48;109394;1252;71464;-69
2023/08/01 05:31:56;;;;;;;6.40;5.80;;;;;;;28.47;100.00;98462.77;109410;1254;60381;-68
2023/08/01 05:34:23;;;;;;;5.60;5.10;;;;;;;28.73;100.00;98457.77;109387;1253;59026;-68
2023/08/01 05:36:50;;;;;;;5.60;5.10;;;;;;;29.03;100.00;98452.58;109459;1254;74633;-69
2023/08/01 05:39:18;;;;;;;5.30;4.70;;;;;;;29.27;100.00;98455.62;109470;1253;67756;-70
2023/08/01 05:41:45;;;;;;;4.70;4.30;;;;;;;29.53;99.90;98460.81;109430;1254;72642;-68
2023/08/01 05:44:13;;;;;;;4.30;3.80;;;;;;;29.69;99.13;98466.27;109384;1253;59024;-69
2023/08/01 05:46:40;;;;;;;4.60;3.40;;;;;;;29.72;97.26;98469.95;109460;1254;60096;-70
2023/08/01 05:49:08;;;;;;;4.20;3.60;;;;;;;29.75;97.30;98469.15;109362;1254;72807;-68
2023/08/01 05:51:35;;;;;;;5.30;3.40;;;;;;;29.81;96.95;98470.41;109410;1254;67566;-69
2023/08/01 05:54:03;;;;;;;5.90;4.50;;;;;;;29.87;96.90;98470.78;109384;1253;72740;-68
2023/08/01 05:56:30;;;;;;;3.80;3.50;;;;;;;29.83;95.38;98465.33;109421;1253;60094;-68
2023/08/01 05:58:58;;;;;;;3.80;3.40;;;;;;;29.75;95.01;98464.92;109499;1252;60039;-68
2023/08/01 06:01:25;;;;;;;4.60;2.90;;;;;;;29.67;94.51;98466.11;109351;1253;73532;-68
2023/08/01 06:03:52;;;;;;;3.50;3.30;;;;;;;29.72;92.67;98464.38;109256;1253;66622;-72
2023/08/01 06:06:20;;;;;;;4.80;3.70;;;;;;;29.71;92.64;98466.23;109426;1253;71117;-70
2023/08/01 06:08:48;;;;;;;8.50;3.30;;;;;;;29.64;99.40;98465.54;109383;1255;60223;-69
2023/08/01 06:11:15;;;;;;;3.60;3.10;;;;;;;29.57;94.18;98465.47;109379;1253;60065;-68
2023/08/01 06:13:42;;;;;;;5.20;2.80;;;;;;;29.49;93.47;98464.98;109331;1254;74773;-70
2023/08/01 06:16:11;;;;;;;3.20;3.00;;;;;;;29.48;94.10;98461.73;109372;1253;67883;-69
2023/08/01 06:18:38;;;;;;;3.30;2.30;;;;;;;29.59;94.00;98465.70;109361;1252;72640;-69
2023/08/01 06:21:05;;;;;;;3.50;3.20;;;;;;;29.81;92.18;98463.77;109365;1254;59527;-69
2023/08/01 06:23:33;;;;;;;5.40;2.60;;;;;;;30.03;90.23;98458.90;109391;1254;60102;-70
2023/08/01 06:26:00;;;;;;;5.50;2.50;;;;;;;30.17;87.67;98458.88;109419;1254;74620;-69
2023/08/01 06:28:27;;;;;;;2.90;2.60;;;;;;;30.35;87.24;98462.45;109389;1253;66281;-70
2023/08/01 06:30:55;;;;;;;3.00;2.10;;;;;;;30.49;85.52;98457.19;109478;1254;72641;-69
2023/08/01 06:33:22;;;;;;;4.90;2.90;;;;;;;30.57;83.60;98457.64;109401;1253;60163;-69
2023/08/01 06:35:50;;;;;;;3.30;2.30;;;;;;;30.54;82.17;98453.55;109298;1253;59957;-69
2023/08/01 06:38:17;;;;;;;3.40;2.50;;;;;;;30.69;82.78;98453.55;109458;1253;74639;-70
2023/08/01 06:40:44;;;;;;;4.60;3.10;;;;;;;30.94;80.83;98453.15;109388;1254;68335;-60
2023/08/01 06:43:12;;;;;;;3.10;2.70;;;;;;;31.03;79.41;98453.65;109446;1254;71185;-60
2023/08/01 06:45:39;;;;;;;3.00;2.30;;;;;;;31.07;80.86;98450.66;109372;1252;60127;-58
2023/08/01 06:48:08;;;;;;;4.30;2.30;;;;;;;31.26;82.30;98450.73;109449;1254;60047;-59
2023/08/01 06:50:35;;;;;;;6.40;2.70;;;;;;;31.48;76.15;98447.69;109382;1254;75217;-70
2023/08/01 06:53:03;;;;;;;4.40;2.30;;;;;;;31.53;74.64;98444.02;109401;1254;66275;-69
2023/08/01 06:55:30;;;;;;;2.30;2.00;;;;;;;31.65;70.24;98445.26;109241;1254;166938;-68
2023/08/01 06:57:57;;;;;;;2.60;2.40;;;;;;;31.68;67.45;98442.61;109384;1253;59256;-69
2023/08/01 07:00:25;;;;;;;5.30;1.80;;;;;;;31.67;67.26;98440.61;109403;1254;59029;-69
2023/08/01 07:02:52;;;;;;;4.40;1.90;;;;;;;31.73;65.20;98438.73;109389;1254;73439;-69
2023/08/01 07:05:20;;;;;;;2.00;1.80;;;;;;;31.73;64.41;98433.45;109415;1254;66765;-68
2023/08/01 07:07:47;;;;;;;2.10;1.90;;;;;;;31.70;62.97;98437.52;109403;1254;73349;-69
2023/08/01 07:10:14;;;;;;;2.60;2.30;;;;;;;31.63;61.82;98433.94;109414;1253;59215;-69
2023/08/01 07:12:42;;;;;;;4.60;2.10;;;;;;;31.56;60.63;98428.79;109504;1253;60208;-69
2023/08/01 07:15:09;;;;;;;2.30;2.10;;;;;;;31.52;62.30;98427.61;109431;1254;74382;-69
2023/08/01 07:17:37;;;;;;;3.00;2.10;;;;;;;31.57;62.30;98427.54;109382;1254;68095;-69
2023/08/01 07:20:05;;;;;;;4.10;1.90;;;;;;;31.50;60.77;98431.66;109388;1254;72697;-69
2023/08/01 07:22:32;;;;;;;2.90;1.80;;;;;;;31.38;59.44;98429.17;109477;1254;58981;-69
2023/08/01 07:24:59;;;;;;;2.80;1.70;;;;;;;31.24;60.11;98428.23;109389;1254;60047;-68
2023/08/01 07:27:27;;;;;;;2.10;1.60;;;;;;;31.14;59.37;98430.36;109440;1254;73358;-69
2023/08/01 07:29:54;;;;;;;2.80;2.10;;;;;;;31.04;59.72;98425.45;109367;1253;67641;-69
2023/08/01 07:32:22;;;;;;;1.90;1.40;;;;;;;30.98;60.52;98423.09;109448;1254;71480;-68
2023/08/01 07:34:53;;;;;;;2.10;1.60;;;;;;;31.17;61.04;98424.17;109411;1253;58948;-69
2023/08/01 07:37:20;;;;;;;2.30;1.90;;;;;;;31.36;59.13;98423.63;109373;1253;60008;-68
2023/08/01 07:39:49;;;;;;;2.70;1.50;;;;;;;31.56;59.91;98424.77;109505;1254;74818;-69
2023/08/01 07:42:16;;;;;;;1.50;1.40;;;;;;;31.88;57.60;98423.83;109371;1253;67923;-68
2023/08/01 07:44:44;;;;;;;2.30;1.60;;;;;;;32.13;54.08;98418.52;109321;1253;72629;-69
2023/08/01 07:47:11;;;;;;;3.70;1.90;;;;;;;32.23;54.79;98422.67;109290;1253;60799;-69
2023/08/01 07:49:39;;;;;;;1.80;1.50;;;;;;;32.05;56.42;98422.22;109330;1254;60140;-67
2023/08/01 07:52:06;;;;;;;2.60;1.70;;;;;;;31.93;57.86;98420.77;109396;1254;73333;-68
2023/08/01 07:54:37;;;;;;;3.00;1.60;;;;;;;32.01;58.48;98427.47;109292;1254;67640;-67
2023/08/01 07:57:05;;;;;;;2.30;1.50;;;;;;;32.20;55.49;98423.66;109358;1252;71497;-69
2023/08/01 07:59:32;;;;;;;3.80;1.70;;;;;;;32.50;52.70;98423.58;109352;1253;59289;-67
2023/08/01 08:02:00;;;;;;;2.00;1.70;;;;;;;32.84;51.77;98415.22;109334;1253;58935;-68
2023/08/01 08:04:27;;;;;;;1.50;1.40;;;;;;;33.14;50.02;98415.47;109319;1252;74660;-69
2023/08/01 08:06:59;;;;;;;4.00;1.50;;;;;;;33.42;47.46;98419.54;109338;1253;67563;-70
2023/08/01 08:09:27;;;;;;;1.60;1.50;;;;;;;33.35;45.02;98416.17;109337;1254;72460;-69
2023/08/01 08:11:57;;;;;;;5.30;1.40;;;;;;;33.01;44.61;98420.21;109360;1253;58934;-68
2023/08/01 08:14:24;;;;;;;1.80;1.70;;;;;;;32.86;44.92;98416.14;109302;1253;61298;-68
2023/08/01 08:16:52;;;;;;;2.70;1.70;;;;;;;32.87;45.08;98412.65;109443;1254;74692;-68
2023/08/01 08:19:19;;;;;;;2.00;1.50;;;;;;;32.96;45.43;98408.54;109397;1253;67886;-69
2023/08/01 08:21:47;;;;;;;2.60;1.60;;;;;;;33.21;45.65;98408.84;109405;1254;72597;-70
2023/08/01 08:24:14;;;;;;;3.20;1.60;;;;;;;33.48;45.47;98407.30;109346;1252;58952;-69
2023/08/01 08:26:41;;;;;;;1.50;1.40;;;;;;;33.68;45.31;98407.55;109428;1254;58995;-68
2023/08/01 08:29:09;;;;;;;5.00;2.00;;;;;;;33.76;43.90;98411.18;109379;1254;74559;-69
2023/08/01 08:31:37;;;;;;;2.20;2.10;;;;;;;33.51;43.11;98409.06;109507;1252;66333;-69
2023/08/01 08:34:04;;;;;;;2.20;2.10;;;;;;;33.10;42.92;98410.30;109430;1253;72673;-69
2023/08/01 08:36:32;;;;;;;1.90;1.80;;;;;;;32.57;44.26;98414.27;109374;1253;58909;-69
2023/08/01 08:39:00;;;;;;;4.30;2.20;;;;;;;32.13;45.86;98407.60;109555;1253;58887;-69
2023/08/01 08:41:28;;;;;;;3.20;1.80;;;;;;;31.90;47.43;98411.16;109422;1252;73898;-70
2023/08/01 08:43:58;;;;;;;2.00;1.90;;;;;;;31.67;48.08;98411.68;109249;1253;68122;-68
2023/08/01 08:46:28;;;;;;;1.80;1.70;;;;;;;31.23;49.21;98411.08;109421;1253;71411;-69
2023/08/01 08:48:58;;;;;;;1.90;1.80;;;;;;;31.07;50.72;98413.00;109376;1253;59162;-68
2023/08/01 08:51:27;;;;;;;2.30;2.20;;;;;;;31.09;51.94;98408.88;109312;1253;60286;-68
2023/08/01 08:53:56;;;;;;;2.60;2.10;;;;;;;31.32;51.70;98408.55;109399;1253;74874;-68
2023/08/01 08:56:24;;;;;;;3.80;1.90;;;;;;;31.78;52.11;98406.14;109168;1253;70345;-68
2023/08/01 08:58:52;;;;;;;1.70;1.60;;;;;;;32.25;50.96;98400.56;109315;1253;72646;-69
2023/08/01 09:01:19;;;;;;;2.90;1.70;;;;;;;32.47;49.20;98398.16;109306;1253;58906;-69
2023/08/01 09:03:46;;;;;;;3.10;2.00;;;;;;;32.48;48.85;98395.25;109408;1253;59021;-68
2023/08/01 09:06:15;;;;;;;2.20;2.00;;;;;;;32.68;47.63;98393.75;109446;1252;73181;-68
2023/08/01 09:09:08;;;;;;;3.20;1.90;;;;;;;32.76;47.94;98393.67;109421;1253;67931;-68
2023/08/01 09:11:48;;;;;;;2.20;1.90;;;;;;;32.44;47.88;98386.96;109109;1253;72699;-68
2023/08/01 09:14:15;;;;;;;2.20;2.00;;;;;;;32.03;48.34;98387.00;109452;1254;60039;-68
2023/08/01 09:16:43;;;;;;;2.70;1.70;;;;;;;31.97;49.11;98390.39;109429;1253;60163;-67
2023/08/01 09:19:13;;;;;;;2.50;1.60;;;;;;;31.72;48.73;98387.06;109440;1254;73381;-67
2023/08/01 09:21:40;;;;;;;1.70;1.60;;;;;;;31.13;49.17;98383.35;109348;1253;66112;-67
2023/08/01 09:24:18;;;;;;;3.50;1.80;;;;;;;30.73;51.76;98380.33;109384;1254;71161;-69
2023/08/01 09:26:46;;;;;;;3.30;2.10;;;;;;;30.68;52.56;98376.63;109398;1254;59924;-69
2023/08/01 09:29:15;;;;;;;2.40;1.70;;;;;;;30.40;53.80;98378.48;109334;1253;60180;-68
2023/08/01 09:31:43;;;;;;;2.60;2.10;;;;;;;30.16;54.80;98377.94;109429;1254;73961;-68
2023/08/01 09:34:21;;;;;;;2.00;1.90;;;;;;;30.31;55.58;98372.70;109401;1253;66344;-68
2023/08/01 09:36:49;;;;;;;1.80;1.70;;;;;;;30.79;54.86;98368.79;109355;1253;71907;-67
2023/08/01 09:39:18;;;;;;;2.10;2.00;;;;;;;31.25;52.70;98369.48;109340;1253;59246;-67
2023/08/01 09:41:45;;;;;;;5.30;2.10;;;;;;;31.60;50.82;98364.54;109356;1253;59182;-68
2023/08/01 09:44:16;;;;;;;3.20;1.90;;;;;;;31.58;49.59;98364.55;109404;1252;73997;-68
2023/08/01 09:46:44;;;;;;;2.20;1.80;;;;;;;31.61;49.55;98358.15;109443;1253;67819;-68
2023/08/01 09:49:12;;;;;;;3.40;1.90;;;;;;;31.48;49.12;98348.60;109399;1254;71813;-69
2023/08/01 09:51:47;;;;;;;4.30;1.80;;;;;;;30.92;50.75;98353.11;109371;1254;59998;-67
2023/08/01 09:54:15;;;;;;;3.50;1.90;;;;;;;30.86;52.02;98343.66;109393;1253;60019;-68
2023/08/01 09:56:47;;;;;;;4.70;2.80;;;;;;;30.94;52.51;98350.85;109456;1252;74492;-61
2023/08/01 09:59:18;;;;;;;2.20;1.80;;;;;;;30.89;54.36;98354.73;109390;1253;65817;-67
2023/08/01 10:01:50;;;;;;;2.20;1.70;;;;;;;30.80;53.09;98348.36;109380;1253;71449;-68
2023/08/01 10:04:28;;;;;;;2.80;1.90;;;;;;;30.52;54.55;98345.62;109440;1253;60169;-67
2023/08/01 10:07:08;;;;;;;2.10;1.90;;;;;;;30.75;55.46;98350.61;109234;1253;60010;-62
2023/08/01 10:09:35;;;;;;;2.50;1.80;;;;;;;30.95;54.08;98342.30;109344;1254;76266;-63
2023/08/01 10:12:04;;;;;;;4.30;2.00;;;;;;;31.11;53.76;98349.28;109320;1252;67909;-60
2023/08/01 10:14:32;;;;;;;2.80;2.10;;;;;;;31.28;53.51;98347.54;109310;1253;72814;-60
2023/08/01 10:16:59;;;;;;;3.30;1.70;;;;;;;31.32;52.87;98344.81;109363;1253;58988;-62
2023/08/01 10:19:27;;;;;;;2.20;2.10;;;;;;;31.26;52.45;98341.90;109393;1253;59598;-63
2023/08/01 10:21:54;;;;;;;2.20;2.00;;;;;;;31.12;52.72;98341.63;109417;1253;74616;-62
2023/08/01 10:24:23;;;;;;;1.70;1.60;;;;;;;31.01;53.98;98339.00;109484;1253;67602;-63
2023/08/01 10:26:51;;;;;;;1.80;1.70;;;;;;;30.96;53.65;98344.23;109122;1253;70900;-62
2023/08/01 10:29:18;;;;;;;4.90;2.00;;;;;;;30.80;53.75;98337.09;109357;1254;58957;-69
2023/08/01 10:31:54;;;;;;;3.70;2.00;;;;;;;30.76;53.37;98335.50;109390;1253;59207;-69
2023/08/01 10:34:22;;;;;;;3.50;2.10;;;;;;;30.82;53.84;98332.30;109309;1253;76775;-70
2023/08/01 10:36:59;;;;;;;2.90;2.20;;;;;;;30.90;53.33;98331.14;109370;1253;66931;-69
2023/08/01 10:39:27;;;;;;;3.20;2.30;;;;;;;30.99;53.03;98328.59;109395;1252;71897;-70
2023/08/01 10:42:02;;;;;;;4.40;2.00;;;;;;;31.08;53.97;98321.65;109431;1253;59070;-69
2023/08/01 10:44:31;;;;;;;2.10;1.70;;;;;;;31.14;52.44;98321.00;109534;1253;58954;-69
2023/08/01 10:47:00;;;;;;;2.20;2.00;;;;;;;31.11;52.58;98321.77;109399;1254;74087;-70
2023/08/01 10:49:40;;;;;;;1.70;1.60;;;;;;;30.99;52.92;98310.52;109402;1253;70202;-70
2023/08/01 10:52:21;;;;;;;2.80;1.70;;;;;;;30.84;53.90;98312.59;109409;1254;72659;-69
2023/08/01 10:55:02;;;;;;;2.00;1.70;;;;;;;30.68;54.44;98309.61;109370;1253;60134;-70
2023/08/01 10:57:30;;;;;;;3.00;1.70;;;;;;;30.59;54.16;98307.02;109375;1253;58937;-70
2023/08/01 10:59:58;;;;;;;2.40;2.20;;;;;;;30.55;56.99;98303.29;109554;1252;74609;-69
2023/08/01 11:02:26;;;;;;;2.60;2.40;;;;;;;30.47;57.91;98305.24;109444;1252;66922;-70
2023/08/01 11:04:57;;;;;;;3.10;2.30;;;;;;;30.15;57.40;98306.89;109420;1253;71448;-68
2023/08/01 11:07:24;;;;;;;1.80;1.70;;;;;;;29.84;58.34;98305.69;109432;1253;60085;-68
2023/08/01 11:10:11;;;;;;;3.70;1.90;;;;;;;29.59;59.37;98301.01;109433;1252;62364;-69
2023/08/01 11:12:43;;;;;;;1.90;1.80;;;;;;;29.49;60.29;98298.96;109380;1254;74652;-69
2023/08/01 11:15:11;;;;;;;2.00;1.90;;;;;;;29.42;60.41;98298.73;109413;1254;67758;-70
2023/08/01 11:17:39;;;;;;;2.10;1.70;;;;;;;29.31;61.18;98293.69;109405;1253;71492;-70
2023/08/01 11:20:11;;;;;;;2.70;2.30;;;;;;;29.28;63.53;98290.79;109402;1253;60075;-70
2023/08/01 11:22:50;;;;;;;2.10;2.00;;;;;;;29.19;63.01;98293.77;109434;1253;58899;-70
2023/08/01 11:25:17;;;;;;;5.20;2.50;;;;;;;29.15;62.08;98288.29;109457;1252;75216;-69
2023/08/01 11:27:45;;;;;;;2.80;2.10;;;;;;;29.07;61.52;98289.94;109365;1253;66995;-70